Map

Track Data

SID SEASON NUMBER BASIN SUBBASIN NAME ISO_TIME NATURE LAT LON WMO_WIND WMO_PRES WMO_AGENCY TRACK_TYPE DIST2LAND LANDFALL IFLAG USA_AGENCY USA_ATCF_ID USA_LAT USA_LON USA_RECORD USA_STATUS USA_WIND USA_PRES USA_SSHS USA_R34_NE USA_R34_SE USA_R34_SW USA_R34_NW USA_R50_NE USA_R50_SE USA_R50_SW USA_R50_NW USA_R64_NE USA_R64_SE USA_R64_SW USA_R64_NW USA_POCI USA_ROCI USA_RMW USA_EYE TOKYO_LAT TOKYO_LON TOKYO_GRADE TOKYO_WIND TOKYO_PRES TOKYO_R50_DIR TOKYO_R50_LONG TOKYO_R50_SHORT TOKYO_R30_DIR TOKYO_R30_LONG TOKYO_R30_SHORT TOKYO_LAND CMA_LAT CMA_LON CMA_CAT CMA_WIND CMA_PRES HKO_LAT HKO_LON HKO_CAT HKO_WIND HKO_PRES NEWDELHI_LAT NEWDELHI_LON NEWDELHI_GRADE NEWDELHI_WIND NEWDELHI_PRES NEWDELHI_CI NEWDELHI_DP NEWDELHI_POCI REUNION_LAT REUNION_LON REUNION_TYPE REUNION_WIND REUNION_PRES REUNION_TNUM REUNION_CI REUNION_RMW REUNION_R34_NE REUNION_R34_SE REUNION_R34_SW REUNION_R34_NW REUNION_R50_NE REUNION_R50_SE REUNION_R50_SW REUNION_R50_NW REUNION_R64_NE REUNION_R64_SE REUNION_R64_SW REUNION_R64_NW BOM_LAT BOM_LON BOM_TYPE BOM_WIND BOM_PRES BOM_TNUM BOM_CI BOM_RMW BOM_R34_NE BOM_R34_SE BOM_R34_SW BOM_R34_NW BOM_R50_NE BOM_R50_SE BOM_R50_SW BOM_R50_NW BOM_R64_NE BOM_R64_SE BOM_R64_SW BOM_R64_NW BOM_ROCI BOM_POCI BOM_EYE BOM_POS_METHOD BOM_PRES_METHOD NADI_LAT NADI_LON NADI_CAT NADI_WIND NADI_PRES WELLINGTON_LAT WELLINGTON_LON WELLINGTON_WIND WELLINGTON_PRES DS824_LAT DS824_LON DS824_STAGE DS824_WIND DS824_PRES TD9636_LAT TD9636_LON TD9636_STAGE TD9636_WIND TD9636_PRES TD9635_LAT TD9635_LON TD9635_WIND TD9635_PRES TD9635_ROCI NEUMANN_LAT NEUMANN_LON NEUMANN_CLASS NEUMANN_WIND NEUMANN_PRES MLC_LAT MLC_LON MLC_CLASS MLC_WIND MLC_PRES USA_GUST BOM_GUST BOM_GUST_PER REUNION_GUST REUNION_GUST_PER USA_SEAHGT USA_SEARAD_NE USA_SEARAD_SE USA_SEARAD_SW USA_SEARAD_NW STORM_SPEED STORM_DIR
1985347N09114 1985 117 WP MM IRVING 1985-12-13 00:00:00 NR 8.50000 114.200 main 328 322 __________O___ -1 8.50000 114.200 0 2 162
1985347N09114 1985 117 WP MM IRVING 1985-12-13 03:00:00 NR 8.42466 114.219 main 322 322 __________P___ -1 8.42466 114.219 0 2 167
1985347N09114 1985 117 WP MM IRVING 1985-12-13 06:00:00 NR 8.35055 114.237 main 322 307 __________P___ -1 8.35055 114.237 0 2 162
1985347N09114 1985 117 WP MM IRVING 1985-12-13 09:00:00 NR 8.27888 114.254 main 307 302 __________P___ -1 8.27888 114.254 0 1 168
1985347N09114 1985 117 WP MM IRVING 1985-12-13 12:00:00 NR 8.21087 114.270 main 302 302 __________P___ -1 8.21087 114.270 0 1 178
1985347N09114 1985 117 WP MM IRVING 1985-12-13 15:00:00 NR 8.14776 114.282 main 297 297 __________P___ -1 8.14776 114.282 0 1 0
1985347N09114 1985 117 WP MM IRVING 1985-12-13 18:00:00 NR 8.09076 114.292 main 297 291 __________P___ -1 8.09076 114.292 0 1 0
1985347N09114 1985 117 WP MM IRVING 1985-12-13 21:00:00 NR 8.04110 114.298 main 291 291 __________P___ -1 8.04110 114.298 0 1 0
1985347N09114 1985 117 WP MM IRVING 1985-12-14 00:00:00 NR 8.00000 114.300 main 291 291 __________O___ -1 8.00000 114.300 0 1 0
1985347N09114 1985 117 WP MM IRVING 1985-12-14 03:00:00 NR 7.96797 114.298 main 291 283 __________P___ -1 7.96797 114.298 0 1 0
1985347N09114 1985 117 WP MM IRVING 1985-12-14 06:00:00 NR 7.94266 114.294 main 283 283 __________P___ -1 7.94266 114.294 0 0 0
1985347N09114 1985 117 WP MM IRVING 1985-12-14 09:00:00 NR 7.92102 114.294 main 283 283 __________P___ -1 7.92102 114.294 0 0 0
1985347N09114 1985 117 WP MM IRVING 1985-12-14 12:00:00 NR 7.90000 114.300 main 283 283 __________O___ -1 7.90000 114.300 0 1 0
1985347N09114 1985 117 WP MM IRVING 1985-12-14 15:00:00 NR 7.87500 114.322 main 283 283 __________P___ -1 7.87500 114.322 0 1 129
1985347N09114 1985 117 WP MM IRVING 1985-12-14 18:00:00 NR 7.85000 114.350 main 275 267 __________P___ -1 7.85000 114.350 0 1 129
1985347N09114 1985 117 WP MM IRVING 1985-12-14 21:00:00 NR 7.82500 114.378 main 267 267 __________P___ -1 7.82500 114.378 0 1 129
1985347N09114 1985 117 WP MM IRVING 1985-12-15 00:00:00 NR 7.80000 114.400 main 267 267 __________O___ -1 7.80000 114.400 0 1 153
1985347N09114 1985 117 WP MM IRVING 1985-12-15 03:00:00 NR 7.77500 114.403 main 267 267 __________P___ -1 7.77500 114.403 0 1 153
1985347N09114 1985 117 WP MM IRVING 1985-12-15 06:00:00 NR 7.75000 114.400 main 267 259 __________P___ -1 7.75000 114.400 0 1 207
1985347N09114 1985 117 WP MM IRVING 1985-12-15 09:00:00 NR 7.72500 114.397 main 259 259 __________P___ -1 7.72500 114.397 0 1 153
1985347N09114 1985 117 WP MM IRVING 1985-12-15 12:00:00 NR 7.70000 114.400 main 259 259 __________O___ -1 7.70000 114.400 0 1 153
1985347N09114 1985 117 WP MM IRVING 1985-12-15 15:00:00 NR 7.67499 114.406 main 259 259 __________P___ -1 7.67499 114.406 0 1 153
1985347N09114 1985 117 WP MM IRVING 1985-12-15 18:00:00 NR 7.64998 114.420 main 251 251 __________P___ -1 7.64998 114.420 0 1 137
1985347N09114 1985 117 WP MM IRVING 1985-12-15 21:00:00 NR 7.62499 114.449 main 251 244 __________P___ -1 7.62499 114.449 0 1 121
1985347N09114 1985 117 WP MM IRVING 1985-12-16 00:00:00 NR 7.60000 114.500 main 244 236 __________O___ -1 7.60000 114.500 0 1 116
1985347N09114 1985 117 WP MM IRVING 1985-12-16 03:00:00 NR 7.56687 114.570 main 236 212 __________P___ -1 7.56687 114.570 0 3 102
1985347N09114 1985 117 WP MM IRVING 1985-12-16 06:00:00 TS 7.53999 114.792 main 212 204 O_O_______P___ jtwc_wp WP261985 7.60000 114.600 25 -1 7.50000 115.500 1 23 1004 7.53499 114.663 0 4 98
1985347N09114 1985 117 WP MM IRVING 1985-12-16 09:00:00 TS 7.51593 114.949 main 204 188 P_P_______P___ WP261985 7.54251 114.750 25 -1 7.50000 115.500 1 23 1004 7.51061 114.773 0 3 98
1985347N09114 1985 117 WP MM IRVING 1985-12-16 12:00:00 TS 7.50000 115.080 main 188 178 O_O_______O___ jtwc_wp WP261985 7.50000 114.900 25 -1 7.50000 115.500 1 23 1004 7.50000 114.900 1 25 3 95
1985347N09114 1985 117 WP MM IRVING 1985-12-16 15:00:00 TS 7.49450 115.207 main 178 168 P_P_______P___ WP261985 7.48499 115.050 27 -1 7.50000 115.500 1 23 1004 7.49849 115.072 1 27 2 99
1985347N09114 1985 117 WP MM IRVING 1985-12-16 18:00:00 TS 7.46541 115.293 main 168 158 O_OO______P___ jtwc_wp WP261985 7.50000 115.200 30 -1 7.50000 115.500 1 23 1004 7.00000 115.000 TD 25 1004 7.51257 115.252 1 30 2 98
1985347N09114 1985 117 WP MM IRVING 1985-12-16 21:00:00 TS 7.47225 115.367 main 158 158 P_PP______P___ WP261985 7.52751 115.372 32 -1 7.50000 115.500 1 23 1004 7.16000 115.010 TD 25 1002 7.54536 115.407 1 32 1 73
1985347N09114 1985 117 WP MM IRVING 1985-12-17 00:00:00 TS 7.50000 115.406 1004 tokyo main 158 158 OOOO______O___ jtwc_wp WP261985 7.60000 115.500 35 0 7.30000 115.500 2 1004 0 0 0 7.50000 115.500 1 23 1004 7.30000 115.000 TD 25 1001 7.60000 115.500 2 35 1 10
1985347N09114 1985 117 WP MM IRVING 1985-12-17 03:00:00 TS 7.56756 115.391 main 163 163 PPPP______P___ WP261985 7.74998 115.545 37 0 7.38750 115.507 2 1004 0 0 7.50000 115.500 1 26 1003 7.40750 114.958 TD 25 999 7.70277 115.502 2 37 2 344
1985347N09114 1985 117 WP MM IRVING 1985-12-17 06:00:00 TS 7.65210 115.361 1004 tokyo main 169 169 OOOO______P___ jtwc_wp WP261985 7.90000 115.500 40 0 7.50000 115.500 2 1004 0 0 0 7.50000 115.500 1 29 1002 7.50000 114.900 TD 25 998 7.82245 115.440 2 40 2 334
1985347N09114 1985 117 WP MM IRVING 1985-12-17 09:00:00 TS 7.73068 115.312 main 178 178 PPPP______P___ WP261985 7.97251 115.373 42 0 7.65000 115.465 2 1004 0 0 7.49248 115.537 1 29 1002 7.60750 114.850 TD 27 997 7.93091 115.333 2 42 2 317
1985347N09114 1985 117 WP MM IRVING 1985-12-17 12:00:00 TS 7.80000 115.220 1004 tokyo main 193 193 OOOO______O___ jtwc_wp WP261985 8.00000 115.200 45 0 7.80000 115.400 2 1004 0 0 0 7.50000 115.500 1 29 1002 7.70000 114.800 TD 30 996 8.00000 115.200 2 45 3 299
1985347N09114 1985 117 WP MM IRVING 1985-12-17 15:00:00 TS 7.85308 115.091 main 209 209 PPPP______P___ WP261985 8.02249 115.050 47 0 7.93749 115.323 2 1004 0 0 7.54255 115.273 1 29 1001 7.75750 114.750 TD 32 995 8.00535 115.059 2 47 3 285
1985347N09114 1985 117 WP MM IRVING 1985-12-17 18:00:00 TS 7.87351 114.940 1004 tokyo main 228 228 OOOO______P___ jtwc_wp WP261985 8.00000 114.900 50 0 8.00000 115.200 2 1004 0 0 0 7.60000 115.000 1 29 1000 7.80000 114.700 TS 35 995 7.96756 114.900 2 50 3 268
1985347N09114 1985 117 WP MM IRVING 1985-12-17 21:00:00 TS 7.84519 114.797 main 232 232 PPPP______P___ WP261985 7.91500 114.742 52 0 7.91502 115.007 2 1002 0 0 7.64248 114.835 1 33 997 7.85750 114.658 TS 40 994 7.89598 114.741 2 52 3 255
1985347N09114 1985 117 WP MM IRVING 1985-12-18 00:00:00 TS 7.80000 114.660 1000 tokyo main 242 242 OOOO______O___ jtwc_wp WP261985 7.80000 114.600 55 0 7.80000 114.800 2 1000 0 0 0 7.70000 114.700 2 38 994 7.90000 114.600 TS 45 994 7.80000 114.600 2 55 3 255
1985347N09114 1985 117 WP MM IRVING 1985-12-18 03:00:00 TS 7.77729 114.543 main 259 259 PPPP______P___ WP261985 7.70750 114.485 57 0 7.79999 114.635 2 999 0 0 7.79999 114.558 2 38 994 7.91500 114.515 TS 45 994 7.66400 114.524 2 55 2 256
1985347N09114 1985 117 WP MM IRVING 1985-12-18 06:00:00 TS 7.74248 114.433 45 998 tokyo main 259 259 OOOO______P___ jtwc_wp WP261985 7.60000 114.400 60 0 7.80000 114.500 3 45 998 0 7 200 100 0 7.90000 114.400 2 38 995 7.90000 114.400 TS 45 994 7.51241 114.465 2 55 2 245
1985347N09114 1985 117 WP MM IRVING 1985-12-18 09:00:00 TS 7.67492 114.324 main 267 259 PPPP______P___ WP261985 7.44248 114.365 57 0 7.72249 114.400 3 47 997 0 7 200 100 7.96501 114.200 2 38 995 7.86500 114.258 TS 45 994 7.37961 114.399 2 55 3 238
1985347N09114 1985 117 WP MM IRVING 1985-12-18 12:00:00 TS 7.60000 114.200 50 996 tokyo main 267 267 OOOO______O___ jtwc_wp WP261985 7.30000 114.300 55 0 7.60000 114.300 4 50 996 0 7 200 100 0 8.00000 114.000 2 38 995 7.80000 114.100 TS 45 995 7.30000 114.300 2 55 3 242
1985347N09114 1985 117 WP MM IRVING 1985-12-18 15:00:00 TS 7.52581 114.046 main 277 277 PPPP______P___ WP261985 7.19751 114.122 55 0 7.41998 114.172 4 50 995 0 7 200 100 8.02249 113.835 2 38 995 7.69999 113.950 TS 45 995 7.28906 114.148 2 53 3 251
1985347N09114 1985 117 WP MM IRVING 1985-12-18 18:00:00 TS 7.48750 113.872 50 994 tokyo main 285 285 OOOO______P___ jtwc_wp WP261985 7.20000 113.900 55 0 7.30000 114.000 4 50 994 0 7 200 100 0 8.00000 113.700 2 38 995 7.60000 113.800 TS 45 995 7.33748 113.960 2 52 4 268
1985347N09114 1985 117 WP MM IRVING 1985-12-18 21:00:00 TS 7.51444 113.682 main 299 299 PPPP______P___ WP261985 7.34000 113.693 52 0 7.35505 113.728 4 50 994 0 7 200 100 7.90749 113.592 2 38 995 7.52749 113.658 TS 45 995 7.44216 113.742 2 51 4 287
1985347N09114 1985 117 WP MM IRVING 1985-12-19 00:00:00 TS 7.60000 113.500 50 994 tokyo main 322 322 OOOO______O___ jtwc_wp WP261985 7.60000 113.500 50 0 7.50000 113.500 4 50 994 0 7 200 100 0 7.80000 113.500 2 38 995 7.50000 113.500 TS 45 995 7.60000 113.500 2 50 4 306
1985347N09114 1985 117 WP MM IRVING 1985-12-19 03:00:00 TS 7.73577 113.370 main 338 338 PPPP______P___ WP261985 7.95742 113.380 47 0 7.64996 113.500 4 50 994 0 7 200 100 7.72750 113.400 2 38 995 7.52000 113.307 TS 45 995 7.82399 113.263 2 48 4 317
1985347N09114 1985 117 WP MM IRVING 1985-12-19 06:00:00 TS 7.89847 113.221 50 994 tokyo main 370 370 OOOO______P___ jtwc_wp WP261985 8.30000 113.200 45 0 7.80000 113.500 4 50 994 0 7 200 100 0 7.70000 113.300 2 38 995 7.60000 113.100 TS 45 995 8.09237 113.003 2 47 5 310
1985347N09114 1985 117 WP MM IRVING 1985-12-19 09:00:00 TS 8.04141 112.999 main 393 393 PPPP______P___ WP261985 8.48755 112.837 45 0 7.90753 113.288 4 50 994 0 7 200 100 7.72746 113.230 2 38 995 7.71995 112.922 TS 42 995 8.36458 112.716 2 46 6 300
1985347N09114 1985 117 WP MM IRVING 1985-12-19 12:00:00 TS 8.18000 112.720 50 994 tokyo main 428 428 OOOO______O___ jtwc_wp WP261985 8.60000 112.400 45 0 8.00000 113.000 4 50 994 0 8 200 100 0 7.80000 113.100 2 38 995 7.90000 112.700 TS 40 995 8.60000 112.400 2 45 6 295
1985347N09114 1985 117 WP MM IRVING 1985-12-19 15:00:00 TS 8.30959 112.413 main 450 450 PPPP______P___ WP261985 8.70748 111.992 45 0 8.09245 112.765 4 50 994 0 8 200 100 7.86992 112.867 2 38 995 8.13498 112.387 TS 40 995 8.74313 112.054 2 45 7 292
1985347N09114 1985 117 WP MM IRVING 1985-12-19 18:00:00 TS 8.44900 112.056 50 994 tokyo main 474 431 OOOO______P___ jtwc_wp WP261985 8.80000 111.600 45 0 8.20000 112.500 4 50 994 0 8 200 100 0 8.00000 112.500 2 38 995 8.40000 112.000 TS 40 995 8.84501 111.680 2 45 8 291
1985347N09114 1985 117 WP MM IRVING 1985-12-19 21:00:00 TS 8.60436 111.653 main 431 378 PPPP______P___ WP261985 8.89992 111.250 45 0 8.32735 112.210 4 50 993 0 8 225 112 8.21273 111.935 2 38 995 8.65744 111.580 TS 37 995 8.92436 111.291 2 45 9 292
1985347N09114 1985 117 WP MM IRVING 1985-12-20 00:00:00 TS 8.78000 111.220 50 992 tokyo main 378 333 OOOO______O___ jtwc_wp WP261985 9.00000 110.900 45 0 8.50000 111.800 4 50 992 0 8 250 125 0 8.50000 111.400 2 38 995 8.90000 111.100 TS 35 996 9.00000 110.900 2 45 9 296
1985347N09114 1985 117 WP MM IRVING 1985-12-20 03:00:00 TS 9.00288 110.809 main 333 290 PPPP______P___ WP261985 9.10000 110.500 45 0 8.77250 111.210 4 50 993 0 8 250 125 8.86440 111.267 2 38 995 9.14501 110.558 TS 35 996 9.13249 110.509 2 43 10 295
1985347N09114 1985 117 WP MM IRVING 1985-12-20 06:00:00 TS 9.19200 110.344 50 994 tokyo main 284 243 OOOO______P___ jtwc_wp WP261985 9.20000 110.100 45 0 9.00000 110.500 4 50 994 0 8 250 125 0 9.20000 111.000 2 38 995 9.30000 110.000 TS 35 997 9.26001 110.120 2 42 11 286
1985347N09114 1985 117 WP MM IRVING 1985-12-20 09:00:00 TS 9.29979 109.725 main 235 204 PPPP______P___ WP261985 9.31496 109.735 42 0 9.06773 109.705 4 50 997 0 8 250 125 9.44121 110.000 2 38 995 9.31756 109.440 TS 35 997 9.35751 109.746 2 41 12 275
1985347N09114 1985 117 WP MM IRVING 1985-12-20 12:00:00 TS 9.30000 109.160 50 1000 tokyo main 204 191 OOOO______O___ jtwc_wp WP261985 9.40000 109.400 40 0 9.00000 109.000 4 50 1000 0 8 250 125 0 9.50000 109.000 2 38 995 9.20000 109.000 TS 35 998 9.40000 109.400 2 40 9 263
1985347N09114 1985 117 WP MM IRVING 1985-12-20 15:00:00 TS 9.19391 108.842 main 189 189 PPPP______P___ WP261985 9.44497 109.085 37 0 8.82977 108.575 4 47 1000 0 8 250 125 9.32451 108.665 2 38 995 8.97238 108.790 TS 32 999 9.39792 109.096 2 38 6 240
1985347N09114 1985 117 WP MM IRVING 1985-12-20 18:00:00 TS 9.00695 108.644 45 1000 tokyo main 201 201 OOOO______P___ jtwc_wp WP261985 9.40000 108.800 35 0 8.60000 108.300 3 45 1000 0 8 250 125 0 9.00000 108.600 2 38 995 8.70000 108.700 TD 30 1000 9.33474 108.820 2 37 6 225
1985347N09114 1985 117 WP MM IRVING 1985-12-20 21:00:00 TS 8.80132 108.446 main 216 216 PPPP______P___ WP261985 9.25248 108.535 35 0 8.39998 108.020 3 1002 0 8 8.64997 108.500 2 33 998 8.49996 108.615 TD 30 1002 9.20420 108.559 2 36 6 220
1985347N09114 1985 117 WP MM IRVING 1985-12-21 00:00:00 TS 8.56000 108.260 1004 tokyo main 223 219 OOOO______O___ jtwc_wp WP261985 9.00000 108.300 35 0 8.20000 107.800 2 1004 0 0 0 8.30000 108.400 1 29 1002 8.30000 108.500 TD 30 1004 9.00000 108.300 2 35 6 217
1985347N09114 1985 117 WP MM IRVING 1985-12-21 03:00:00 TS 8.30113 108.062 main 227 219 PPPP______P___ WP261985 8.67243 108.115 32 -1 7.99246 107.650 2 1005 0 0 8.05740 108.260 1 26 1003 8.05755 108.250 TD 27 1005 8.72582 108.033 2 33 7 219
1985347N09114 1985 117 WP MM IRVING 1985-12-21 06:00:00 TS 8.02786 107.824 1006 tokyo main 227 227 OOOO______P___ jtwc_wp WP261985 8.30000 107.900 30 -1 7.80000 107.500 2 1006 0 0 0 7.80000 108.000 1 23 1004 7.80000 108.000 TD 25 1006 8.38232 107.765 2 32 8 223
1985347N09114 1985 117 WP MM IRVING 1985-12-21 09:00:00 TS 7.75284 107.550 main 225 225 PPPP______P___ WP261985 7.95753 107.565 30 -1 7.65751 107.265 2 1005 0 0 7.43521 107.555 1 21 1004 7.55747 107.878 TD 25 1007 7.99768 107.489 2 31 8 226
1985347N09114 1985 117 WP MM IRVING 1985-12-21 12:00:00 TS 7.48125 107.250 1004 tokyo main 244 240 OOOO______O___ jtwc_wp WP261985 7.60000 107.200 30 -1 7.50000 107.000 2 1004 0 0 0 7.00000 107.000 0 19 1004 7.30000 107.800 TD 25 1008 7.60000 107.200 1 30 8 226
1985347N09114 1985 117 WP MM IRVING 1985-12-21 15:00:00 TS 7.19485 106.970 main 259 251 PP_P______P___ WP261985 7.19995 106.900 30 -1 7.26499 106.750 2 1004 0 0 0 7.01002 107.707 TD 25 1008 7.21205 106.892 1 28 9 225
1985347N09114 1985 117 WP MM IRVING 1985-12-21 18:00:00 TS 6.87326 106.646 1004 tokyo main 256 256 OO_O______P___ jtwc_wp WP261985 6.80000 106.600 30 -1 7.00000 106.500 2 1004 0 0 0 6.70000 107.600 TD 25 1009 6.83527 106.570 1 27 9 231
1985347N09114 1985 117 WP MM IRVING 1985-12-21 21:00:00 TS 6.60087 106.231 main 265 265 PP________P___ WP261985 6.43757 106.262 27 -1 6.75002 106.212 2 1004 0 0 TD 6.46585 106.237 1 26 8 233
1985347N09114 1985 117 WP MM IRVING 1985-12-22 00:00:00 TS 6.36667 105.967 1004 tokyo main 279 279 OO________O___ jtwc_wp WP261985 6.10000 105.900 25 -1 6.50000 106.000 2 1004 0 0 0 6.10000 105.900 1 25 4 221
1985347N09114 1985 117 WP MM IRVING 1985-12-22 03:00:00 TS 6.28747 105.963 main 290 290 _P____________ WP261985 -1 6.28747 105.963 2 1006 0 0 1 4 174
1985347N09114 1985 117 WP MM IRVING 1985-12-22 06:00:00 TS 6.00000 106.000 1008 tokyo main 315 285 _O____________ -1 6.00000 106.000 2 1008 0 0 0 1 7 176
1985347N09114 1985 117 WP MM IRVING 1985-12-22 09:00:00 TS 5.55001 106.012 main 285 248 _P____________ -1 5.55001 106.012 2 1008 0 0 1 10 179
1985347N09114 1985 117 WP MM IRVING 1985-12-22 12:00:00 TS 5.00000 106.000 1008 tokyo main 248 _O____________ -1 5.00000 106.000 2 1008 0 0 0 11 0

Digital Typhoon Data and Search

About IBTrACS Database

This database is a web-friendly format of International Best Track Archive for Climate Stewardship (IBTrACS), a global best track data archive curated by NOAA dating back to 1842.

Updated: 2021-12-03